Antrim, New Hampshire
Current Conditions -  °F | °C
As of 12:52 AM on Monday 26 Jan 2015 (Local Time) from KAFN Reporting Station
Clear Clear  
Wind Chill:   Ceiling: Unl
Heat Index:   Visibility: 10mi
Dew Point: -2°   Wind: 5mph
Humidity: 61%   Direction: 350°N
Pressure: 30"   Gusts: NA
Location:  43.03°N, 71.95°W
Report Text: KAFN 260552Z AUTO 35004KT 10SM CLR M13/M19 A3000 RMK AO2 SLP182 T11281189 11067 21128 51020
Loading
Personal Weather Stations






























Interactive Weather Map New forecast layout! Learn more

10-Day Weather Forecast

Advertisements
Track Severe Weather on mobile